sensor_id;sensor_type;location;lat;lon;timestamp;temperature;humidity
19555;DHT22;9924;50.828;6.440;2024-01-07T00:00:02;2.20;99.90
19555;DHT22;9924;50.828;6.440;2024-01-07T00:02:29;2.20;99.90
19555;DHT22;9924;50.828;6.440;2024-01-07T00:04:56;2.20;99.90
19555;DHT22;9924;50.828;6.440;2024-01-07T00:07:22;2.20;99.90
19555;DHT22;9924;50.828;6.440;2024-01-07T00:09:47;2.20;99.90
19555;DHT22;9924;50.828;6.440;2024-01-07T00:12:13;2.20;99.90
19555;DHT22;9924;50.828;6.440;2024-01-07T00:14:39;2.30;99.90
19555;DHT22;9924;50.828;6.440;2024-01-07T00:17:04;2.20;99.90
19555;DHT22;9924;50.828;6.440;2024-01-07T00:19:30;2.20;99.90
19555;DHT22;9924;50.828;6.440;2024-01-07T00:22:01;2.20;99.90
19555;DHT22;9924;50.828;6.440;2024-01-07T00:24:26;2.20;99.90
19555;DHT22;9924;50.828;6.440;2024-01-07T00:26:54;2.20;99.90
19555;DHT22;9924;50.828;6.440;2024-01-07T00:29:20;2.20;99.90
19555;DHT22;9924;50.828;6.440;2024-01-07T00:31:46;2.20;99.90
19555;DHT22;9924;50.828;6.440;2024-01-07T00:34:11;2.20;99.90
19555;DHT22;9924;50.828;6.440;2024-01-07T00:36:37;2.20;99.90
19555;DHT22;9924;50.828;6.440;2024-01-07T00:39:03;2.20;99.90
19555;DHT22;9924;50.828;6.440;2024-01-07T00:41:29;2.20;99.90
19555;DHT22;9924;50.828;6.440;2024-01-07T00:43:55;2.20;99.90
19555;DHT22;9924;50.828;6.440;2024-01-07T00:46:21;2.20;99.90
19555;DHT22;9924;50.828;6.440;2024-01-07T00:48:47;2.20;99.90
19555;DHT22;9924;50.828;6.440;2024-01-07T00:51:13;2.10;99.90
19555;DHT22;9924;50.828;6.440;2024-01-07T00:53:38;2.10;99.90
19555;DHT22;9924;50.828;6.440;2024-01-07T00:56:05;2.10;99.90
19555;DHT22;9924;50.828;6.440;2024-01-07T00:58:31;2.20;99.90
19555;DHT22;9924;50.828;6.440;2024-01-07T01:00:56;2.20;99.90
19555;DHT22;9924;50.828;6.440;2024-01-07T01:03:22;2.20;99.90
19555;DHT22;9924;50.828;6.440;2024-01-07T01:05:48;2.20;99.90
19555;DHT22;9924;50.828;6.440;2024-01-07T01:08:13;2.30;99.90
19555;DHT22;9924;50.828;6.440;2024-01-07T01:10:39;2.30;99.90
19555;DHT22;9924;50.828;6.440;2024-01-07T01:13:05;2.30;99.90
19555;DHT22;9924;50.828;6.440;2024-01-07T01:15:30;2.20;99.90
19555;DHT22;9924;50.828;6.440;2024-01-07T01:17:56;2.20;99.90
19555;DHT22;9924;50.828;6.440;2024-01-07T01:20:21;2.20;99.90
19555;DHT22;9924;50.828;6.440;2024-01-07T01:22:47;2.20;99.90
19555;DHT22;9924;50.828;6.440;2024-01-07T01:25:13;2.30;99.90
19555;DHT22;9924;50.828;6.440;2024-01-07T01:27:39;2.30;99.90
19555;DHT22;9924;50.828;6.440;2024-01-07T01:30:05;2.30;99.90
19555;DHT22;9924;50.828;6.440;2024-01-07T01:32:31;2.30;99.90
19555;DHT22;9924;50.828;6.440;2024-01-07T01:34:56;2.20;99.90
19555;DHT22;9924;50.828;6.440;2024-01-07T01:37:22;2.20;99.90
19555;DHT22;9924;50.828;6.440;2024-01-07T01:39:48;2.20;99.90
19555;DHT22;9924;50.828;6.440;2024-01-07T01:42:13;2.20;99.90
19555;DHT22;9924;50.828;6.440;2024-01-07T01:44:39;2.20;99.90
19555;DHT22;9924;50.828;6.440;2024-01-07T01:47:06;2.20;99.90
19555;DHT22;9924;50.828;6.440;2024-01-07T01:49:32;2.20;99.90
19555;DHT22;9924;50.828;6.440;2024-01-07T01:51:58;2.10;99.90
19555;DHT22;9924;50.828;6.440;2024-01-07T01:54:24;2.10;99.90
19555;DHT22;9924;50.828;6.440;2024-01-07T01:56:51;2.20;99.90
19555;DHT22;9924;50.828;6.440;2024-01-07T01:59:17;2.10;99.90
19555;DHT22;9924;50.828;6.440;2024-01-07T02:01:44;2.20;99.90
19555;DHT22;9924;50.828;6.440;2024-01-07T02:04:09;2.20;99.90
19555;DHT22;9924;50.828;6.440;2024-01-07T02:06:35;2.20;99.90
19555;DHT22;9924;50.828;6.440;2024-01-07T02:09:01;2.20;99.90
19555;DHT22;9924;50.828;6.440;2024-01-07T02:11:27;2.30;99.90
19555;DHT22;9924;50.828;6.440;2024-01-07T02:13:53;2.30;99.90
19555;DHT22;9924;50.828;6.440;2024-01-07T02:16:19;2.20;99.90
19555;DHT22;9924;50.828;6.440;2024-01-07T02:18:45;2.20;99.90
19555;DHT22;9924;50.828;6.440;2024-01-07T02:21:13;2.20;99.90
19555;DHT22;9924;50.828;6.440;2024-01-07T02:23:39;2.20;99.90
19555;DHT22;9924;50.828;6.440;2024-01-07T02:26:05;2.10;99.90
19555;DHT22;9924;50.828;6.440;2024-01-07T02:28:31;2.10;99.90
19555;DHT22;9924;50.828;6.440;2024-01-07T02:30:57;2.10;99.90
19555;DHT22;9924;50.828;6.440;2024-01-07T02:33:22;2.10;99.90
19555;DHT22;9924;50.828;6.440;2024-01-07T02:35:48;2.10;99.90
19555;DHT22;9924;50.828;6.440;2024-01-07T02:38:14;2.20;99.90
19555;DHT22;9924;50.828;6.440;2024-01-07T02:40:39;2.20;99.90
19555;DHT22;9924;50.828;6.440;2024-01-07T02:43:05;2.10;99.90
19555;DHT22;9924;50.828;6.440;2024-01-07T02:45:31;2.20;99.90
19555;DHT22;9924;50.828;6.440;2024-01-07T02:47:56;2.10;99.90
19555;DHT22;9924;50.828;6.440;2024-01-07T02:50:22;2.10;99.90
19555;DHT22;9924;50.828;6.440;2024-01-07T02:52:47;2.10;99.90
19555;DHT22;9924;50.828;6.440;2024-01-07T02:55:13;2.10;99.90
19555;DHT22;9924;50.828;6.440;2024-01-07T02:57:39;2.20;99.90
19555;DHT22;9924;50.828;6.440;2024-01-07T03:00:05;2.10;99.90
19555;DHT22;9924;50.828;6.440;2024-01-07T03:02:31;2.10;99.90
19555;DHT22;9924;50.828;6.440;2024-01-07T03:04:57;2.10;99.90
19555;DHT22;9924;50.828;6.440;2024-01-07T03:07:23;2.10;99.90
19555;DHT22;9924;50.828;6.440;2024-01-07T03:09:49;2.20;99.90
19555;DHT22;9924;50.828;6.440;2024-01-07T03:12:17;2.20;99.90
19555;DHT22;9924;50.828;6.440;2024-01-07T03:14:43;2.20;99.90
19555;DHT22;9924;50.828;6.440;2024-01-07T03:17:12;2.20;99.90
19555;DHT22;9924;50.828;6.440;2024-01-07T03:19:38;2.20;99.90
19555;DHT22;9924;50.828;6.440;2024-01-07T03:22:04;2.20;99.90
19555;DHT22;9924;50.828;6.440;2024-01-07T03:24:31;2.20;99.90
19555;DHT22;9924;50.828;6.440;2024-01-07T03:26:57;2.20;99.90
19555;DHT22;9924;50.828;6.440;2024-01-07T03:29:22;2.30;99.90
19555;DHT22;9924;50.828;6.440;2024-01-07T03:31:48;2.30;99.90
19555;DHT22;9924;50.828;6.440;2024-01-07T03:34:14;2.30;99.90
19555;DHT22;9924;50.828;6.440;2024-01-07T03:36:39;2.30;99.90
19555;DHT22;9924;50.828;6.440;2024-01-07T03:39:05;2.30;99.90
19555;DHT22;9924;50.828;6.440;2024-01-07T03:41:31;2.30;99.90
19555;DHT22;9924;50.828;6.440;2024-01-07T03:43:56;2.30;99.90
19555;DHT22;9924;50.828;6.440;2024-01-07T03:46:22;2.30;99.90
19555;DHT22;9924;50.828;6.440;2024-01-07T03:48:48;2.30;99.90
19555;DHT22;9924;50.828;6.440;2024-01-07T03:51:13;2.30;99.90
19555;DHT22;9924;50.828;6.440;2024-01-07T03:53:39;2.30;99.90
19555;DHT22;9924;50.828;6.440;2024-01-07T03:56:05;2.30;99.90
19555;DHT22;9924;50.828;6.440;2024-01-07T03:58:31;2.30;99.90
19555;DHT22;9924;50.828;6.440;2024-01-07T04:00:57;2.30;99.90
19555;DHT22;9924;50.828;6.440;2024-01-07T04:03:22;2.30;99.90
19555;DHT22;9924;50.828;6.440;2024-01-07T04:05:48;2.20;99.90
19555;DHT22;9924;50.828;6.440;2024-01-07T04:08:13;2.20;99.90
19555;DHT22;9924;50.828;6.440;2024-01-07T04:10:41;2.20;99.90
19555;DHT22;9924;50.828;6.440;2024-01-07T04:13:07;2.20;99.90
19555;DHT22;9924;50.828;6.440;2024-01-07T04:15:33;2.20;99.90
19555;DHT22;9924;50.828;6.440;2024-01-07T04:18:03;2.30;99.90
19555;DHT22;9924;50.828;6.440;2024-01-07T04:20:29;2.30;99.90
19555;DHT22;9924;50.828;6.440;2024-01-07T04:22:55;2.20;99.90
19555;DHT22;9924;50.828;6.440;2024-01-07T04:25:21;2.30;99.90
19555;DHT22;9924;50.828;6.440;2024-01-07T04:27:46;2.30;99.90
19555;DHT22;9924;50.828;6.440;2024-01-07T04:30:12;2.30;99.90
19555;DHT22;9924;50.828;6.440;2024-01-07T04:32:38;2.30;99.90
19555;DHT22;9924;50.828;6.440;2024-01-07T04:35:04;2.30;99.90
19555;DHT22;9924;50.828;6.440;2024-01-07T04:37:29;2.20;99.90
19555;DHT22;9924;50.828;6.440;2024-01-07T04:39:55;2.20;99.90
19555;DHT22;9924;50.828;6.440;2024-01-07T04:42:21;2.20;99.90
19555;DHT22;9924;50.828;6.440;2024-01-07T04:44:46;2.20;99.90
19555;DHT22;9924;50.828;6.440;2024-01-07T04:47:29;2.20;99.90
19555;DHT22;9924;50.828;6.440;2024-01-07T04:49:55;2.20;99.90
19555;DHT22;9924;50.828;6.440;2024-01-07T04:52:22;2.20;99.90
19555;DHT22;9924;50.828;6.440;2024-01-07T04:54:51;2.20;99.90
19555;DHT22;9924;50.828;6.440;2024-01-07T04:57:17;2.30;99.90
19555;DHT22;9924;50.828;6.440;2024-01-07T04:59:43;2.30;99.90
19555;DHT22;9924;50.828;6.440;2024-01-07T05:02:10;2.30;99.90
19555;DHT22;9924;50.828;6.440;2024-01-07T05:04:36;2.20;99.90
19555;DHT22;9924;50.828;6.440;2024-01-07T05:07:02;2.20;99.90
19555;DHT22;9924;50.828;6.440;2024-01-07T05:09:28;2.20;99.90
19555;DHT22;9924;50.828;6.440;2024-01-07T05:11:53;2.20;99.90
19555;DHT22;9924;50.828;6.440;2024-01-07T05:14:19;2.20;99.90
19555;DHT22;9924;50.828;6.440;2024-01-07T05:16:45;2.20;99.90
19555;DHT22;9924;50.828;6.440;2024-01-07T05:19:10;2.20;99.90
19555;DHT22;9924;50.828;6.440;2024-01-07T05:21:36;2.20;99.90
19555;DHT22;9924;50.828;6.440;2024-01-07T05:24:01;2.20;99.90
19555;DHT22;9924;50.828;6.440;2024-01-07T05:26:27;2.10;99.90
19555;DHT22;9924;50.828;6.440;2024-01-07T05:28:53;2.10;99.90
19555;DHT22;9924;50.828;6.440;2024-01-07T05:31:18;2.20;99.90
19555;DHT22;9924;50.828;6.440;2024-01-07T05:33:46;2.10;99.90
19555;DHT22;9924;50.828;6.440;2024-01-07T05:36:12;2.10;99.90
19555;DHT22;9924;50.828;6.440;2024-01-07T05:38:38;2.20;99.90
19555;DHT22;9924;50.828;6.440;2024-01-07T05:41:05;2.10;99.90
19555;DHT22;9924;50.828;6.440;2024-01-07T05:43:30;2.10;99.90
19555;DHT22;9924;50.828;6.440;2024-01-07T05:45:56;2.10;99.90
19555;DHT22;9924;50.828;6.440;2024-01-07T05:48:22;2.00;99.90
19555;DHT22;9924;50.828;6.440;2024-01-07T05:50:48;2.10;99.90
19555;DHT22;9924;50.828;6.440;2024-01-07T05:53:14;2.00;99.90
19555;DHT22;9924;50.828;6.440;2024-01-07T05:55:40;2.00;99.90
19555;DHT22;9924;50.828;6.440;2024-01-07T05:58:05;2.00;99.90
19555;DHT22;9924;50.828;6.440;2024-01-07T06:00:31;1.90;99.90
19555;DHT22;9924;50.828;6.440;2024-01-07T06:02:57;1.90;99.90
19555;DHT22;9924;50.828;6.440;2024-01-07T06:05:23;2.00;99.90
19555;DHT22;9924;50.828;6.440;2024-01-07T06:07:49;2.00;99.90
19555;DHT22;9924;50.828;6.440;2024-01-07T06:10:14;2.00;99.90
19555;DHT22;9924;50.828;6.440;2024-01-07T06:12:40;2.00;99.90
19555;DHT22;9924;50.828;6.440;2024-01-07T06:15:06;1.90;99.90
19555;DHT22;9924;50.828;6.440;2024-01-07T06:17:32;2.00;99.90
19555;DHT22;9924;50.828;6.440;2024-01-07T06:19:58;2.00;99.90
19555;DHT22;9924;50.828;6.440;2024-01-07T06:22:23;2.00;99.90
19555;DHT22;9924;50.828;6.440;2024-01-07T06:24:49;2.00;99.90
19555;DHT22;9924;50.828;6.440;2024-01-07T06:27:15;2.00;99.90
19555;DHT22;9924;50.828;6.440;2024-01-07T06:29:40;2.00;99.90
19555;DHT22;9924;50.828;6.440;2024-01-07T06:32:06;2.00;99.90
19555;DHT22;9924;50.828;6.440;2024-01-07T06:34:32;2.00;99.90
19555;DHT22;9924;50.828;6.440;2024-01-07T06:36:58;2.00;99.90
19555;DHT22;9924;50.828;6.440;2024-01-07T06:39:24;2.00;99.90
19555;DHT22;9924;50.828;6.440;2024-01-07T06:41:52;1.90;99.90
19555;DHT22;9924;50.828;6.440;2024-01-07T06:44:18;1.90;99.90
19555;DHT22;9924;50.828;6.440;2024-01-07T06:46:44;1.90;99.90
19555;DHT22;9924;50.828;6.440;2024-01-07T06:49:09;1.80;99.90
19555;DHT22;9924;50.828;6.440;2024-01-07T06:51:35;1.90;99.90
19555;DHT22;9924;50.828;6.440;2024-01-07T06:54:01;1.80;99.90
19555;DHT22;9924;50.828;6.440;2024-01-07T06:56:26;1.80;99.90
19555;DHT22;9924;50.828;6.440;2024-01-07T06:58:52;1.80;99.90
19555;DHT22;9924;50.828;6.440;2024-01-07T07:01:21;1.70;99.90
19555;DHT22;9924;50.828;6.440;2024-01-07T07:03:48;1.80;99.90
19555;DHT22;9924;50.828;6.440;2024-01-07T07:06:15;1.80;99.90
19555;DHT22;9924;50.828;6.440;2024-01-07T07:08:40;1.80;99.90
19555;DHT22;9924;50.828;6.440;2024-01-07T07:11:06;1.80;99.90
19555;DHT22;9924;50.828;6.440;2024-01-07T07:13:31;1.70;99.90
19555;DHT22;9924;50.828;6.440;2024-01-07T07:15:57;1.70;99.90
19555;DHT22;9924;50.828;6.440;2024-01-07T07:18:23;1.70;99.90
19555;DHT22;9924;50.828;6.440;2024-01-07T07:20:49;1.70;99.90
19555;DHT22;9924;50.828;6.440;2024-01-07T07:23:15;1.60;99.90
19555;DHT22;9924;50.828;6.440;2024-01-07T07:25:41;1.70;99.90
19555;DHT22;9924;50.828;6.440;2024-01-07T07:28:06;1.70;99.90
19555;DHT22;9924;50.828;6.440;2024-01-07T07:30:32;1.70;99.90
19555;DHT22;9924;50.828;6.440;2024-01-07T07:32:57;1.70;99.90
19555;DHT22;9924;50.828;6.440;2024-01-07T07:35:23;1.70;99.90
19555;DHT22;9924;50.828;6.440;2024-01-07T07:37:49;1.70;99.90
19555;DHT22;9924;50.828;6.440;2024-01-07T07:40:14;1.70;99.90
19555;DHT22;9924;50.828;6.440;2024-01-07T07:42:40;1.60;99.90
19555;DHT22;9924;50.828;6.440;2024-01-07T07:45:06;1.60;99.90
19555;DHT22;9924;50.828;6.440;2024-01-07T07:47:32;1.60;99.90
19555;DHT22;9924;50.828;6.440;2024-01-07T07:49:57;1.50;99.90
19555;DHT22;9924;50.828;6.440;2024-01-07T07:52:23;1.50;99.90
19555;DHT22;9924;50.828;6.440;2024-01-07T07:54:54;1.50;99.90
19555;DHT22;9924;50.828;6.440;2024-01-07T07:57:20;1.60;99.90
19555;DHT22;9924;50.828;6.440;2024-01-07T07:59:49;1.60;99.90
19555;DHT22;9924;50.828;6.440;2024-01-07T08:02:15;1.60;99.90
19555;DHT22;9924;50.828;6.440;2024-01-07T08:04:41;1.60;99.90
19555;DHT22;9924;50.828;6.440;2024-01-07T08:07:08;1.60;99.90
19555;DHT22;9924;50.828;6.440;2024-01-07T08:09:34;1.60;99.90
19555;DHT22;9924;50.828;6.440;2024-01-07T08:12:03;1.60;99.90
19555;DHT22;9924;50.828;6.440;2024-01-07T08:14:29;1.50;99.90
19555;DHT22;9924;50.828;6.440;2024-01-07T08:16:55;1.50;99.90
19555;DHT22;9924;50.828;6.440;2024-01-07T08:19:20;1.50;99.90
19555;DHT22;9924;50.828;6.440;2024-01-07T08:21:46;1.50;99.90
19555;DHT22;9924;50.828;6.440;2024-01-07T08:24:12;1.40;99.90
19555;DHT22;9924;50.828;6.440;2024-01-07T08:26:38;1.40;99.90
19555;DHT22;9924;50.828;6.440;2024-01-07T08:29:04;1.40;99.90
19555;DHT22;9924;50.828;6.440;2024-01-07T08:31:29;1.40;99.90
19555;DHT22;9924;50.828;6.440;2024-01-07T08:33:55;1.40;99.90
19555;DHT22;9924;50.828;6.440;2024-01-07T08:36:21;1.40;99.90
19555;DHT22;9924;50.828;6.440;2024-01-07T08:38:47;1.40;99.90
19555;DHT22;9924;50.828;6.440;2024-01-07T08:41:15;1.40;99.90
19555;DHT22;9924;50.828;6.440;2024-01-07T08:43:41;1.50;99.90
19555;DHT22;9924;50.828;6.440;2024-01-07T08:46:07;1.60;99.90
19555;DHT22;9924;50.828;6.440;2024-01-07T08:48:32;1.50;99.90
19555;DHT22;9924;50.828;6.440;2024-01-07T08:50:58;1.50;99.90
19555;DHT22;9924;50.828;6.440;2024-01-07T08:53:24;1.50;99.90
19555;DHT22;9924;50.828;6.440;2024-01-07T08:55:52;1.50;99.90
19555;DHT22;9924;50.828;6.440;2024-01-07T08:58:18;1.50;99.90
19555;DHT22;9924;50.828;6.440;2024-01-07T09:00:44;1.50;99.90
19555;DHT22;9924;50.828;6.440;2024-01-07T09:03:12;1.50;99.90
19555;DHT22;9924;50.828;6.440;2024-01-07T09:05:38;1.50;99.90
19555;DHT22;9924;50.828;6.440;2024-01-07T09:08:04;1.40;99.90
19555;DHT22;9924;50.828;6.440;2024-01-07T09:10:31;1.40;99.90
19555;DHT22;9924;50.828;6.440;2024-01-07T09:12:57;1.40;99.90
19555;DHT22;9924;50.828;6.440;2024-01-07T09:15:25;1.40;99.90
19555;DHT22;9924;50.828;6.440;2024-01-07T09:17:51;1.40;99.90
19555;DHT22;9924;50.828;6.440;2024-01-07T09:20:18;1.30;99.90
19555;DHT22;9924;50.828;6.440;2024-01-07T09:22:45;1.30;99.90
19555;DHT22;9924;50.828;6.440;2024-01-07T09:25:10;1.20;99.90
19555;DHT22;9924;50.828;6.440;2024-01-07T09:27:36;1.20;99.90
19555;DHT22;9924;50.828;6.440;2024-01-07T09:30:02;1.20;99.90
19555;DHT22;9924;50.828;6.440;2024-01-07T09:32:28;1.20;99.90
19555;DHT22;9924;50.828;6.440;2024-01-07T09:34:54;1.20;99.90
19555;DHT22;9924;50.828;6.440;2024-01-07T09:37:20;1.10;99.90
19555;DHT22;9924;50.828;6.440;2024-01-07T09:39:45;1.10;99.90
19555;DHT22;9924;50.828;6.440;2024-01-07T09:42:15;1.10;99.90
19555;DHT22;9924;50.828;6.440;2024-01-07T09:44:42;1.10;99.90
19555;DHT22;9924;50.828;6.440;2024-01-07T09:47:11;1.10;99.90
19555;DHT22;9924;50.828;6.440;2024-01-07T09:49:40;1.10;99.90
19555;DHT22;9924;50.828;6.440;2024-01-07T09:52:08;1.20;99.90
19555;DHT22;9924;50.828;6.440;2024-01-07T09:54:36;1.10;99.90
19555;DHT22;9924;50.828;6.440;2024-01-07T09:57:04;1.10;99.90
19555;DHT22;9924;50.828;6.440;2024-01-07T09:59:35;1.10;99.90
19555;DHT22;9924;50.828;6.440;2024-01-07T10:02:02;1.10;99.90
19555;DHT22;9924;50.828;6.440;2024-01-07T10:04:29;1.10;99.90
19555;DHT22;9924;50.828;6.440;2024-01-07T10:06:55;1.10;99.90
19555;DHT22;9924;50.828;6.440;2024-01-07T10:09:40;1.10;99.90
19555;DHT22;9924;50.828;6.440;2024-01-07T10:12:08;1.10;99.90
19555;DHT22;9924;50.828;6.440;2024-01-07T10:14:33;1.10;99.90
19555;DHT22;9924;50.828;6.440;2024-01-07T10:17:00;1.10;99.90
19555;DHT22;9924;50.828;6.440;2024-01-07T10:19:26;1.10;99.90
19555;DHT22;9924;50.828;6.440;2024-01-07T10:22:04;1.10;99.90
19555;DHT22;9924;50.828;6.440;2024-01-07T10:24:40;1.00;99.90
19555;DHT22;9924;50.828;6.440;2024-01-07T10:27:07;1.00;99.90
19555;DHT22;9924;50.828;6.440;2024-01-07T10:29:33;1.10;99.90
19555;DHT22;9924;50.828;6.440;2024-01-07T10:32:00;1.00;99.90
19555;DHT22;9924;50.828;6.440;2024-01-07T10:34:30;1.10;99.90
19555;DHT22;9924;50.828;6.440;2024-01-07T10:36:58;1.10;99.90
19555;DHT22;9924;50.828;6.440;2024-01-07T10:39:24;1.10;99.90
19555;DHT22;9924;50.828;6.440;2024-01-07T10:41:51;1.10;99.90
19555;DHT22;9924;50.828;6.440;2024-01-07T10:44:21;1.10;99.90
19555;DHT22;9924;50.828;6.440;2024-01-07T10:46:48;1.10;99.90
19555;DHT22;9924;50.828;6.440;2024-01-07T10:49:20;1.10;99.90
19555;DHT22;9924;50.828;6.440;2024-01-07T10:52:07;1.00;99.90
19555;DHT22;9924;50.828;6.440;2024-01-07T10:54:34;1.10;99.90
19555;DHT22;9924;50.828;6.440;2024-01-07T10:59:59;1.00;99.90
19555;DHT22;9924;50.828;6.440;2024-01-07T11:02:26;1.00;99.90
19555;DHT22;9924;50.828;6.440;2024-01-07T11:07:45;1.00;99.90
19555;DHT22;9924;50.828;6.440;2024-01-07T11:10:16;1.00;99.90
19555;DHT22;9924;50.828;6.440;2024-01-07T11:12:43;1.00;99.90
19555;DHT22;9924;50.828;6.440;2024-01-07T11:15:09;1.00;99.90
19555;DHT22;9924;50.828;6.440;2024-01-07T11:20:18;1.00;99.90
19555;DHT22;9924;50.828;6.440;2024-01-07T11:22:44;1.00;99.90
19555;DHT22;9924;50.828;6.440;2024-01-07T11:25:33;0.90;99.90
19555;DHT22;9924;50.828;6.440;2024-01-07T11:28:02;0.90;99.90
19555;DHT22;9924;50.828;6.440;2024-01-07T11:30:27;0.90;99.90
19555;DHT22;9924;50.828;6.440;2024-01-07T11:32:57;0.80;99.90
19555;DHT22;9924;50.828;6.440;2024-01-07T11:35:54;0.90;99.90
19555;DHT22;9924;50.828;6.440;2024-01-07T11:38:22;0.90;99.90
19555;DHT22;9924;50.828;6.440;2024-01-07T11:40:49;0.90;99.90
19555;DHT22;9924;50.828;6.440;2024-01-07T11:43:15;0.90;99.90
19555;DHT22;9924;50.828;6.440;2024-01-07T11:45:41;0.90;99.90
19555;DHT22;9924;50.828;6.440;2024-01-07T11:48:07;1.00;99.90
19555;DHT22;9924;50.828;6.440;2024-01-07T11:50:32;0.90;99.90
19555;DHT22;9924;50.828;6.440;2024-01-07T11:52:58;0.90;99.90
19555;DHT22;9924;50.828;6.440;2024-01-07T11:55:25;1.00;99.90
19555;DHT22;9924;50.828;6.440;2024-01-07T11:57:51;0.90;99.90
19555;DHT22;9924;50.828;6.440;2024-01-07T12:00:17;1.00;99.90
19555;DHT22;9924;50.828;6.440;2024-01-07T12:02:43;0.90;99.90
19555;DHT22;9924;50.828;6.440;2024-01-07T12:05:09;1.00;99.90
19555;DHT22;9924;50.828;6.440;2024-01-07T12:07:36;1.00;99.90
19555;DHT22;9924;50.828;6.440;2024-01-07T12:10:02;1.00;99.90
19555;DHT22;9924;50.828;6.440;2024-01-07T12:12:28;1.00;99.90
19555;DHT22;9924;50.828;6.440;2024-01-07T12:14:55;1.00;99.90
19555;DHT22;9924;50.828;6.440;2024-01-07T12:17:21;1.00;99.90
19555;DHT22;9924;50.828;6.440;2024-01-07T12:19:47;1.10;99.90
19555;DHT22;9924;50.828;6.440;2024-01-07T12:22:13;1.10;99.90
19555;DHT22;9924;50.828;6.440;2024-01-07T12:24:39;1.00;99.90
19555;DHT22;9924;50.828;6.440;2024-01-07T12:27:05;1.00;99.90
19555;DHT22;9924;50.828;6.440;2024-01-07T12:29:31;1.00;99.90
19555;DHT22;9924;50.828;6.440;2024-01-07T12:31:56;0.90;99.90
19555;DHT22;9924;50.828;6.440;2024-01-07T12:34:22;0.90;99.90
19555;DHT22;9924;50.828;6.440;2024-01-07T12:36:51;0.90;99.90
19555;DHT22;9924;50.828;6.440;2024-01-07T12:39:20;1.00;99.90
19555;DHT22;9924;50.828;6.440;2024-01-07T12:41:46;0.90;99.90
19555;DHT22;9924;50.828;6.440;2024-01-07T12:44:12;0.90;99.90
19555;DHT22;9924;50.828;6.440;2024-01-07T12:46:38;1.00;99.90
19555;DHT22;9924;50.828;6.440;2024-01-07T12:49:03;1.00;99.90
19555;DHT22;9924;50.828;6.440;2024-01-07T12:51:29;0.90;99.90
19555;DHT22;9924;50.828;6.440;2024-01-07T12:53:55;1.00;99.90
19555;DHT22;9924;50.828;6.440;2024-01-07T12:56:22;0.90;99.90
19555;DHT22;9924;50.828;6.440;2024-01-07T12:58:47;0.90;99.90
19555;DHT22;9924;50.828;6.440;2024-01-07T13:01:13;0.90;99.90
19555;DHT22;9924;50.828;6.440;2024-01-07T13:03:40;0.80;99.90
19555;DHT22;9924;50.828;6.440;2024-01-07T13:06:06;0.90;99.90
19555;DHT22;9924;50.828;6.440;2024-01-07T13:08:32;0.90;99.90
19555;DHT22;9924;50.828;6.440;2024-01-07T13:10:58;0.90;99.90
19555;DHT22;9924;50.828;6.440;2024-01-07T13:13:26;0.90;99.90
19555;DHT22;9924;50.828;6.440;2024-01-07T13:15:53;0.90;99.90
19555;DHT22;9924;50.828;6.440;2024-01-07T13:18:18;0.80;99.90
19555;DHT22;9924;50.828;6.440;2024-01-07T13:20:46;0.80;99.90
19555;DHT22;9924;50.828;6.440;2024-01-07T13:23:12;0.80;99.90
19555;DHT22;9924;50.828;6.440;2024-01-07T13:25:37;0.80;99.90
19555;DHT22;9924;50.828;6.440;2024-01-07T13:28:03;0.80;99.90
19555;DHT22;9924;50.828;6.440;2024-01-07T13:30:29;0.70;99.90
19555;DHT22;9924;50.828;6.440;2024-01-07T13:32:54;0.70;99.90
19555;DHT22;9924;50.828;6.440;2024-01-07T13:35:22;0.70;99.90
19555;DHT22;9924;50.828;6.440;2024-01-07T13:37:48;0.80;99.90
19555;DHT22;9924;50.828;6.440;2024-01-07T13:40:13;0.70;99.90
19555;DHT22;9924;50.828;6.440;2024-01-07T13:42:40;0.70;99.90
19555;DHT22;9924;50.828;6.440;2024-01-07T13:45:06;0.70;99.90
19555;DHT22;9924;50.828;6.440;2024-01-07T13:47:31;0.60;99.90
19555;DHT22;9924;50.828;6.440;2024-01-07T13:49:57;0.60;99.90
19555;DHT22;9924;50.828;6.440;2024-01-07T13:52:23;0.60;99.90
19555;DHT22;9924;50.828;6.440;2024-01-07T13:54:48;0.60;99.90
19555;DHT22;9924;50.828;6.440;2024-01-07T13:57:14;0.60;99.90
19555;DHT22;9924;50.828;6.440;2024-01-07T13:59:40;0.60;99.90
19555;DHT22;9924;50.828;6.440;2024-01-07T14:02:07;0.60;99.90
19555;DHT22;9924;50.828;6.440;2024-01-07T14:04:33;0.60;99.90
19555;DHT22;9924;50.828;6.440;2024-01-07T14:06:59;0.60;99.90
19555;DHT22;9924;50.828;6.440;2024-01-07T14:09:25;0.50;99.90
19555;DHT22;9924;50.828;6.440;2024-01-07T14:11:51;0.50;99.90
19555;DHT22;9924;50.828;6.440;2024-01-07T14:14:17;0.50;99.90
19555;DHT22;9924;50.828;6.440;2024-01-07T14:16:45;0.50;99.90
19555;DHT22;9924;50.828;6.440;2024-01-07T14:19:11;0.50;99.90
19555;DHT22;9924;50.828;6.440;2024-01-07T14:21:37;0.50;99.90
19555;DHT22;9924;50.828;6.440;2024-01-07T14:24:02;0.40;99.90
19555;DHT22;9924;50.828;6.440;2024-01-07T14:26:28;0.30;99.90
19555;DHT22;9924;50.828;6.440;2024-01-07T14:28:54;0.30;99.90
19555;DHT22;9924;50.828;6.440;2024-01-07T14:31:20;0.30;99.90
19555;DHT22;9924;50.828;6.440;2024-01-07T14:33:45;0.20;99.90
19555;DHT22;9924;50.828;6.440;2024-01-07T14:36:12;0.20;99.90
19555;DHT22;9924;50.828;6.440;2024-01-07T14:38:46;0.20;99.90
19555;DHT22;9924;50.828;6.440;2024-01-07T14:41:13;0.20;99.90
19555;DHT22;9924;50.828;6.440;2024-01-07T14:43:39;0.20;99.90
19555;DHT22;9924;50.828;6.440;2024-01-07T14:46:07;0.20;99.90
19555;DHT22;9924;50.828;6.440;2024-01-07T14:48:34;0.10;99.90
19555;DHT22;9924;50.828;6.440;2024-01-07T14:51:00;0.00;99.90
19555;DHT22;9924;50.828;6.440;2024-01-07T14:53:26;0.00;99.90
19555;DHT22;9924;50.828;6.440;2024-01-07T14:55:54;-0.10;99.90
19555;DHT22;9924;50.828;6.440;2024-01-07T14:58:20;-0.10;99.90
19555;DHT22;9924;50.828;6.440;2024-01-07T15:00:46;0.00;99.90
19555;DHT22;9924;50.828;6.440;2024-01-07T15:03:13;0.00;99.90
19555;DHT22;9924;50.828;6.440;2024-01-07T15:05:38;-0.10;99.90
19555;DHT22;9924;50.828;6.440;2024-01-07T15:08:05;0.00;99.90
19555;DHT22;9924;50.828;6.440;2024-01-07T15:10:31;-0.10;99.90
19555;DHT22;9924;50.828;6.440;2024-01-07T15:12:58;-0.10;99.90
19555;DHT22;9924;50.828;6.440;2024-01-07T15:15:24;-0.10;99.90
19555;DHT22;9924;50.828;6.440;2024-01-07T15:17:57;-0.10;99.90
19555;DHT22;9924;50.828;6.440;2024-01-07T15:20:23;-0.10;99.90
19555;DHT22;9924;50.828;6.440;2024-01-07T15:22:49;-0.20;99.90
19555;DHT22;9924;50.828;6.440;2024-01-07T15:25:16;-0.30;99.90
19555;DHT22;9924;50.828;6.440;2024-01-07T15:27:41;-0.30;99.90
19555;DHT22;9924;50.828;6.440;2024-01-07T15:30:07;-0.30;99.90
19555;DHT22;9924;50.828;6.440;2024-01-07T15:32:33;-0.30;99.90
19555;DHT22;9924;50.828;6.440;2024-01-07T15:34:59;-0.30;99.90
19555;DHT22;9924;50.828;6.440;2024-01-07T15:37:25;-0.30;99.90
19555;DHT22;9924;50.828;6.440;2024-01-07T15:39:51;-0.30;99.90
19555;DHT22;9924;50.828;6.440;2024-01-07T15:42:18;-0.30;99.90
19555;DHT22;9924;50.828;6.440;2024-01-07T15:44:43;-0.30;99.90
19555;DHT22;9924;50.828;6.440;2024-01-07T15:47:09;-0.30;99.90
19555;DHT22;9924;50.828;6.440;2024-01-07T15:49:35;-0.30;99.90
19555;DHT22;9924;50.828;6.440;2024-01-07T15:52:01;-0.30;99.90
19555;DHT22;9924;50.828;6.440;2024-01-07T15:54:27;-0.30;99.90
19555;DHT22;9924;50.828;6.440;2024-01-07T15:56:53;-0.30;99.90
19555;DHT22;9924;50.828;6.440;2024-01-07T15:59:21;-0.20;99.90
19555;DHT22;9924;50.828;6.440;2024-01-07T16:01:49;-0.20;99.90